sensor_id;sensor_type;location;lat;lon;timestamp;P1;durP1;ratioP1;P2;durP2;ratioP2
23346;SDS011;36852;45.466;11.066;2023-11-19T00:01:05;5.67;;;3.20;;
23346;SDS011;36852;45.466;11.066;2023-11-19T00:03:33;5.55;;;2.72;;
23346;SDS011;36852;45.466;11.066;2023-11-19T00:06:02;5.53;;;3.45;;
23346;SDS011;36852;45.466;11.066;2023-11-19T00:08:32;5.45;;;3.10;;
23346;SDS011;36852;45.466;11.066;2023-11-19T00:11:00;4.15;;;2.72;;
23346;SDS011;36852;45.466;11.066;2023-11-19T00:13:30;4.03;;;2.87;;
23346;SDS011;36852;45.466;11.066;2023-11-19T00:15:58;8.00;;;3.55;;
23346;SDS011;36852;45.466;11.066;2023-11-19T00:18:26;4.25;;;3.10;;
23346;SDS011;36852;45.466;11.066;2023-11-19T00:20:54;7.83;;;3.50;;
23346;SDS011;36852;45.466;11.066;2023-11-19T00:23:22;6.20;;;3.85;;
23346;SDS011;36852;45.466;11.066;2023-11-19T00:25:50;11.83;;;4.08;;
23346;SDS011;36852;45.466;11.066;2023-11-19T00:28:18;5.33;;;3.35;;
23346;SDS011;36852;45.466;11.066;2023-11-19T00:30:47;4.72;;;3.47;;
23346;SDS011;36852;45.466;11.066;2023-11-19T00:33:15;9.83;;;3.42;;
23346;SDS011;36852;45.466;11.066;2023-11-19T00:35:43;5.58;;;3.60;;
23346;SDS011;36852;45.466;11.066;2023-11-19T00:38:11;7.05;;;3.25;;
23346;SDS011;36852;45.466;11.066;2023-11-19T00:40:38;6.50;;;3.58;;
23346;SDS011;36852;45.466;11.066;2023-11-19T00:43:08;8.45;;;3.10;;
23346;SDS011;36852;45.466;11.066;2023-11-19T00:45:36;5.12;;;3.58;;
23346;SDS011;36852;45.466;11.066;2023-11-19T00:48:04;6.33;;;2.90;;
23346;SDS011;36852;45.466;11.066;2023-11-19T00:50:33;5.15;;;3.30;;
23346;SDS011;36852;45.466;11.066;2023-11-19T00:53:04;5.33;;;3.15;;
23346;SDS011;36852;45.466;11.066;2023-11-19T00:55:32;3.27;;;2.50;;
23346;SDS011;36852;45.466;11.066;2023-11-19T00:58:05;6.75;;;3.35;;
23346;SDS011;36852;45.466;11.066;2023-11-19T01:00:33;5.67;;;3.02;;
23346;SDS011;36852;45.466;11.066;2023-11-19T01:03:02;4.33;;;2.70;;
23346;SDS011;36852;45.466;11.066;2023-11-19T01:05:30;4.05;;;2.50;;
23346;SDS011;36852;45.466;11.066;2023-11-19T01:07:58;6.15;;;2.85;;
23346;SDS011;36852;45.466;11.066;2023-11-19T01:10:26;4.65;;;2.87;;
23346;SDS011;36852;45.466;11.066;2023-11-19T01:12:54;5.92;;;3.02;;
23346;SDS011;36852;45.466;11.066;2023-11-19T01:15:25;4.20;;;2.95;;
23346;SDS011;36852;45.466;11.066;2023-11-19T01:17:53;4.05;;;3.05;;
23346;SDS011;36852;45.466;11.066;2023-11-19T01:20:21;4.67;;;2.80;;
23346;SDS011;36852;45.466;11.066;2023-11-19T01:22:49;4.62;;;2.90;;
23346;SDS011;36852;45.466;11.066;2023-11-19T01:25:17;4.15;;;3.17;;
23346;SDS011;36852;45.466;11.066;2023-11-19T01:27:47;6.00;;;3.05;;
23346;SDS011;36852;45.466;11.066;2023-11-19T01:30:14;6.47;;;3.47;;
23346;SDS011;36852;45.466;11.066;2023-11-19T01:32:42;5.47;;;3.22;;
23346;SDS011;36852;45.466;11.066;2023-11-19T01:35:10;6.05;;;3.95;;
23346;SDS011;36852;45.466;11.066;2023-11-19T01:37:38;5.37;;;3.98;;
23346;SDS011;36852;45.466;11.066;2023-11-19T01:40:07;7.60;;;3.83;;
23346;SDS011;36852;45.466;11.066;2023-11-19T01:42:37;6.83;;;3.58;;
23346;SDS011;36852;45.466;11.066;2023-11-19T01:45:06;4.50;;;3.55;;
23346;SDS011;36852;45.466;11.066;2023-11-19T01:47:37;5.75;;;3.10;;
23346;SDS011;36852;45.466;11.066;2023-11-19T01:50:08;6.03;;;3.80;;
23346;SDS011;36852;45.466;11.066;2023-11-19T01:52:36;9.58;;;3.60;;
23346;SDS011;36852;45.466;11.066;2023-11-19T01:55:06;7.47;;;4.20;;
23346;SDS011;36852;45.466;11.066;2023-11-19T01:57:36;6.75;;;3.52;;
23346;SDS011;36852;45.466;11.066;2023-11-19T02:00:06;4.75;;;3.60;;
23346;SDS011;36852;45.466;11.066;2023-11-19T02:02:38;5.87;;;4.28;;
23346;SDS011;36852;45.466;11.066;2023-11-19T02:05:07;5.45;;;3.62;;
23346;SDS011;36852;45.466;11.066;2023-11-19T02:07:38;6.53;;;4.62;;
23346;SDS011;36852;45.466;11.066;2023-11-19T02:10:07;7.53;;;4.87;;
23346;SDS011;36852;45.466;11.066;2023-11-19T02:12:38;7.30;;;4.90;;
23346;SDS011;36852;45.466;11.066;2023-11-19T02:15:11;8.40;;;4.87;;
23346;SDS011;36852;45.466;11.066;2023-11-19T02:17:39;7.87;;;4.78;;
23346;SDS011;36852;45.466;11.066;2023-11-19T02:20:07;7.42;;;4.80;;
23346;SDS011;36852;45.466;11.066;2023-11-19T02:22:37;8.00;;;4.58;;
23346;SDS011;36852;45.466;11.066;2023-11-19T02:25:07;7.90;;;5.42;;
23346;SDS011;36852;45.466;11.066;2023-11-19T02:27:43;8.20;;;4.80;;
23346;SDS011;36852;45.466;11.066;2023-11-19T02:30:12;6.37;;;4.17;;
23346;SDS011;36852;45.466;11.066;2023-11-19T02:32:42;10.23;;;6.85;;
23346;SDS011;36852;45.466;11.066;2023-11-19T02:35:10;8.18;;;6.17;;
23346;SDS011;36852;45.466;11.066;2023-11-19T02:37:38;9.85;;;6.53;;
23346;SDS011;36852;45.466;11.066;2023-11-19T02:40:06;8.68;;;6.33;;
23346;SDS011;36852;45.466;11.066;2023-11-19T02:42:36;10.20;;;5.87;;
23346;SDS011;36852;45.466;11.066;2023-11-19T02:45:05;9.43;;;6.35;;
23346;SDS011;36852;45.466;11.066;2023-11-19T02:47:34;10.45;;;7.03;;
23346;SDS011;36852;45.466;11.066;2023-11-19T02:50:03;10.88;;;6.62;;
23346;SDS011;36852;45.466;11.066;2023-11-19T02:52:34;10.03;;;6.60;;
23346;SDS011;36852;45.466;11.066;2023-11-19T02:55:04;10.90;;;6.50;;
23346;SDS011;36852;45.466;11.066;2023-11-19T02:57:35;11.12;;;6.65;;
23346;SDS011;36852;45.466;11.066;2023-11-19T03:00:04;10.68;;;6.65;;
23346;SDS011;36852;45.466;11.066;2023-11-19T03:02:34;12.70;;;6.83;;
23346;SDS011;36852;45.466;11.066;2023-11-19T03:05:04;12.35;;;7.25;;
23346;SDS011;36852;45.466;11.066;2023-11-19T03:07:33;11.93;;;6.75;;
23346;SDS011;36852;45.466;11.066;2023-11-19T03:10:01;10.88;;;6.90;;
23346;SDS011;36852;45.466;11.066;2023-11-19T03:12:29;13.70;;;6.83;;
23346;SDS011;36852;45.466;11.066;2023-11-19T03:15:00;12.55;;;7.70;;
23346;SDS011;36852;45.466;11.066;2023-11-19T03:17:27;10.03;;;5.92;;
23346;SDS011;36852;45.466;11.066;2023-11-19T03:19:55;9.93;;;5.92;;
23346;SDS011;36852;45.466;11.066;2023-11-19T03:22:23;9.78;;;6.45;;
23346;SDS011;36852;45.466;11.066;2023-11-19T03:24:51;10.08;;;6.40;;
23346;SDS011;36852;45.466;11.066;2023-11-19T03:27:22;7.60;;;5.55;;
23346;SDS011;36852;45.466;11.066;2023-11-19T03:29:50;10.72;;;5.67;;
23346;SDS011;36852;45.466;11.066;2023-11-19T03:32:18;8.90;;;5.22;;
23346;SDS011;36852;45.466;11.066;2023-11-19T03:34:47;9.05;;;6.35;;
23346;SDS011;36852;45.466;11.066;2023-11-19T03:37:15;13.00;;;5.80;;
23346;SDS011;36852;45.466;11.066;2023-11-19T03:39:44;7.95;;;5.50;;
23346;SDS011;36852;45.466;11.066;2023-11-19T03:42:12;9.80;;;5.87;;
23346;SDS011;36852;45.466;11.066;2023-11-19T03:44:40;10.32;;;6.40;;
23346;SDS011;36852;45.466;11.066;2023-11-19T03:47:08;7.80;;;5.80;;
23346;SDS011;36852;45.466;11.066;2023-11-19T03:49:37;9.00;;;6.00;;
23346;SDS011;36852;45.466;11.066;2023-11-19T03:52:05;9.15;;;5.83;;
23346;SDS011;36852;45.466;11.066;2023-11-19T03:54:35;7.55;;;5.25;;
23346;SDS011;36852;45.466;11.066;2023-11-19T03:57:03;9.58;;;5.72;;
23346;SDS011;36852;45.466;11.066;2023-11-19T03:59:33;7.90;;;5.72;;
23346;SDS011;36852;45.466;11.066;2023-11-19T04:02:02;12.23;;;6.35;;
23346;SDS011;36852;45.466;11.066;2023-11-19T04:04:31;8.38;;;6.25;;
23346;SDS011;36852;45.466;11.066;2023-11-19T04:07:00;7.83;;;5.65;;
23346;SDS011;36852;45.466;11.066;2023-11-19T04:09:30;9.03;;;5.87;;
23346;SDS011;36852;45.466;11.066;2023-11-19T04:12:00;7.40;;;5.28;;
23346;SDS011;36852;45.466;11.066;2023-11-19T04:14:28;7.35;;;6.10;;
23346;SDS011;36852;45.466;11.066;2023-11-19T04:16:59;7.58;;;5.30;;
23346;SDS011;36852;45.466;11.066;2023-11-19T04:19:28;7.25;;;5.50;;
23346;SDS011;36852;45.466;11.066;2023-11-19T04:21:56;8.43;;;5.92;;
23346;SDS011;36852;45.466;11.066;2023-11-19T04:24:27;8.85;;;6.45;;
23346;SDS011;36852;45.466;11.066;2023-11-19T04:26:55;9.35;;;5.90;;
23346;SDS011;36852;45.466;11.066;2023-11-19T04:29:23;9.40;;;5.45;;
23346;SDS011;36852;45.466;11.066;2023-11-19T04:31:51;10.15;;;6.30;;
23346;SDS011;36852;45.466;11.066;2023-11-19T04:34:22;10.58;;;5.90;;
23346;SDS011;36852;45.466;11.066;2023-11-19T04:36:50;8.08;;;5.75;;
23346;SDS011;36852;45.466;11.066;2023-11-19T04:39:17;14.18;;;6.08;;
23346;SDS011;36852;45.466;11.066;2023-11-19T04:41:49;8.90;;;6.62;;
23346;SDS011;36852;45.466;11.066;2023-11-19T04:44:17;9.93;;;6.45;;
23346;SDS011;36852;45.466;11.066;2023-11-19T04:46:47;8.18;;;5.58;;
23346;SDS011;36852;45.466;11.066;2023-11-19T04:49:15;7.83;;;5.47;;
23346;SDS011;36852;45.466;11.066;2023-11-19T04:51:46;8.20;;;5.60;;
23346;SDS011;36852;45.466;11.066;2023-11-19T04:54:14;10.28;;;6.35;;
23346;SDS011;36852;45.466;11.066;2023-11-19T04:56:46;9.00;;;5.97;;
23346;SDS011;36852;45.466;11.066;2023-11-19T04:59:16;10.32;;;6.67;;
23346;SDS011;36852;45.466;11.066;2023-11-19T05:01:47;9.13;;;6.67;;
23346;SDS011;36852;45.466;11.066;2023-11-19T05:04:15;9.03;;;6.25;;
23346;SDS011;36852;45.466;11.066;2023-11-19T05:06:46;8.83;;;5.85;;
23346;SDS011;36852;45.466;11.066;2023-11-19T05:09:15;9.23;;;6.08;;
23346;SDS011;36852;45.466;11.066;2023-11-19T05:11:43;11.18;;;6.12;;
23346;SDS011;36852;45.466;11.066;2023-11-19T05:14:13;9.35;;;5.80;;
23346;SDS011;36852;45.466;11.066;2023-11-19T05:16:42;8.35;;;5.72;;
23346;SDS011;36852;45.466;11.066;2023-11-19T05:19:10;9.05;;;5.78;;
23346;SDS011;36852;45.466;11.066;2023-11-19T05:21:41;12.55;;;7.10;;
23346;SDS011;36852;45.466;11.066;2023-11-19T05:24:11;9.00;;;6.08;;
23346;SDS011;36852;45.466;11.066;2023-11-19T05:26:39;9.05;;;6.45;;
23346;SDS011;36852;45.466;11.066;2023-11-19T05:29:07;9.30;;;5.37;;
23346;SDS011;36852;45.466;11.066;2023-11-19T05:31:35;9.30;;;6.42;;
23346;SDS011;36852;45.466;11.066;2023-11-19T05:34:05;9.98;;;6.15;;
23346;SDS011;36852;45.466;11.066;2023-11-19T05:36:34;8.53;;;6.12;;
23346;SDS011;36852;45.466;11.066;2023-11-19T05:39:05;10.00;;;6.05;;
23346;SDS011;36852;45.466;11.066;2023-11-19T05:41:34;8.95;;;6.60;;
23346;SDS011;36852;45.466;11.066;2023-11-19T05:44:02;16.32;;;6.40;;
23346;SDS011;36852;45.466;11.066;2023-11-19T05:46:30;10.93;;;6.45;;
23346;SDS011;36852;45.466;11.066;2023-11-19T05:48:59;8.15;;;5.92;;
23346;SDS011;36852;45.466;11.066;2023-11-19T05:51:29;9.48;;;6.30;;
23346;SDS011;36852;45.466;11.066;2023-11-19T05:53:57;8.88;;;6.15;;
23346;SDS011;36852;45.466;11.066;2023-11-19T05:56:25;10.30;;;5.95;;
23346;SDS011;36852;45.466;11.066;2023-11-19T05:58:55;8.53;;;6.17;;
23346;SDS011;36852;45.466;11.066;2023-11-19T06:01:23;8.78;;;5.60;;
23346;SDS011;36852;45.466;11.066;2023-11-19T06:03:51;10.05;;;6.12;;
23346;SDS011;36852;45.466;11.066;2023-11-19T06:06:19;8.73;;;6.33;;
23346;SDS011;36852;45.466;11.066;2023-11-19T06:08:47;12.55;;;6.47;;
23346;SDS011;36852;45.466;11.066;2023-11-19T06:11:16;8.78;;;6.62;;
23346;SDS011;36852;45.466;11.066;2023-11-19T06:13:46;15.80;;;8.45;;
23346;SDS011;36852;45.466;11.066;2023-11-19T06:16:16;13.15;;;8.53;;
23346;SDS011;36852;45.466;11.066;2023-11-19T06:18:45;12.80;;;8.20;;
23346;SDS011;36852;45.466;11.066;2023-11-19T06:21:13;17.12;;;8.85;;
23346;SDS011;36852;45.466;11.066;2023-11-19T06:23:41;14.20;;;8.25;;
23346;SDS011;36852;45.466;11.066;2023-11-19T06:26:09;16.10;;;9.15;;
23346;SDS011;36852;45.466;11.066;2023-11-19T06:28:37;17.37;;;8.70;;
23346;SDS011;36852;45.466;11.066;2023-11-19T06:31:05;14.47;;;8.60;;
23346;SDS011;36852;45.466;11.066;2023-11-19T06:33:34;11.75;;;7.80;;
23346;SDS011;36852;45.466;11.066;2023-11-19T06:36:10;13.58;;;8.65;;
23346;SDS011;36852;45.466;11.066;2023-11-19T06:38:43;11.48;;;7.83;;
23346;SDS011;36852;45.466;11.066;2023-11-19T06:41:11;12.68;;;8.60;;
23346;SDS011;36852;45.466;11.066;2023-11-19T06:43:40;12.93;;;8.85;;
23346;SDS011;36852;45.466;11.066;2023-11-19T06:46:20;11.78;;;7.92;;
23346;SDS011;36852;45.466;11.066;2023-11-19T06:48:45;12.20;;;8.50;;
23346;SDS011;36852;45.466;11.066;2023-11-19T06:51:13;15.13;;;8.98;;
23346;SDS011;36852;45.466;11.066;2023-11-19T06:53:44;12.00;;;7.65;;
23346;SDS011;36852;45.466;11.066;2023-11-19T06:56:20;12.43;;;7.92;;
23346;SDS011;36852;45.466;11.066;2023-11-19T06:58:49;12.88;;;7.83;;
23346;SDS011;36852;45.466;11.066;2023-11-19T07:01:18;14.60;;;8.03;;
23346;SDS011;36852;45.466;11.066;2023-11-19T07:03:47;14.38;;;8.25;;
23346;SDS011;36852;45.466;11.066;2023-11-19T07:06:16;12.18;;;7.85;;
23346;SDS011;36852;45.466;11.066;2023-11-19T07:08:44;11.95;;;9.03;;
23346;SDS011;36852;45.466;11.066;2023-11-19T07:11:13;15.05;;;8.93;;
23346;SDS011;36852;45.466;11.066;2023-11-19T07:13:44;11.20;;;8.98;;
23346;SDS011;36852;45.466;11.066;2023-11-19T07:16:14;13.58;;;8.80;;
23346;SDS011;36852;45.466;11.066;2023-11-19T07:18:43;15.75;;;9.00;;
23346;SDS011;36852;45.466;11.066;2023-11-19T07:21:14;13.78;;;9.35;;
23346;SDS011;36852;45.466;11.066;2023-11-19T07:23:41;13.93;;;9.80;;
23346;SDS011;36852;45.466;11.066;2023-11-19T07:26:10;16.32;;;9.05;;
23346;SDS011;36852;45.466;11.066;2023-11-19T07:28:38;16.20;;;10.10;;
23346;SDS011;36852;45.466;11.066;2023-11-19T07:31:07;16.52;;;11.30;;
23346;SDS011;36852;45.466;11.066;2023-11-19T07:33:43;15.30;;;10.20;;
23346;SDS011;36852;45.466;11.066;2023-11-19T07:36:10;17.92;;;11.38;;
23346;SDS011;36852;45.466;11.066;2023-11-19T07:38:38;19.27;;;10.68;;
23346;SDS011;36852;45.466;11.066;2023-11-19T07:41:06;22.52;;;11.00;;
23346;SDS011;36852;45.466;11.066;2023-11-19T07:43:36;17.17;;;10.65;;
23346;SDS011;36852;45.466;11.066;2023-11-19T07:46:04;14.40;;;10.30;;
23346;SDS011;36852;45.466;11.066;2023-11-19T07:48:32;15.83;;;11.45;;
23346;SDS011;36852;45.466;11.066;2023-11-19T07:51:02;19.42;;;11.25;;
23346;SDS011;36852;45.466;11.066;2023-11-19T07:53:30;15.63;;;10.75;;
23346;SDS011;36852;45.466;11.066;2023-11-19T07:56:00;23.05;;;11.78;;
23346;SDS011;36852;45.466;11.066;2023-11-19T07:58:28;19.55;;;11.50;;
23346;SDS011;36852;45.466;11.066;2023-11-19T08:00:57;18.73;;;11.50;;
23346;SDS011;36852;45.466;11.066;2023-11-19T08:03:28;19.10;;;11.75;;
23346;SDS011;36852;45.466;11.066;2023-11-19T08:05:57;16.80;;;11.10;;
23346;SDS011;36852;45.466;11.066;2023-11-19T08:08:26;17.85;;;12.20;;
23346;SDS011;36852;45.466;11.066;2023-11-19T08:10:53;14.03;;;10.95;;
23346;SDS011;36852;45.466;11.066;2023-11-19T08:13:24;17.20;;;11.55;;
23346;SDS011;36852;45.466;11.066;2023-11-19T08:15:52;18.85;;;12.33;;
23346;SDS011;36852;45.466;11.066;2023-11-19T08:18:19;18.05;;;11.45;;
23346;SDS011;36852;45.466;11.066;2023-11-19T08:20:48;15.13;;;11.53;;
23346;SDS011;36852;45.466;11.066;2023-11-19T08:23:19;19.85;;;13.98;;
23346;SDS011;36852;45.466;11.066;2023-11-19T08:25:47;17.95;;;11.75;;
23346;SDS011;36852;45.466;11.066;2023-11-19T08:28:15;17.02;;;11.70;;
23346;SDS011;36852;45.466;11.066;2023-11-19T08:30:43;16.20;;;11.68;;
23346;SDS011;36852;45.466;11.066;2023-11-19T08:33:12;16.30;;;11.28;;
23346;SDS011;36852;45.466;11.066;2023-11-19T08:35:40;18.48;;;12.80;;
23346;SDS011;36852;45.466;11.066;2023-11-19T08:38:08;15.18;;;11.33;;
23346;SDS011;36852;45.466;11.066;2023-11-19T08:40:37;14.35;;;10.85;;
23346;SDS011;36852;45.466;11.066;2023-11-19T08:43:06;28.05;;;13.48;;
23346;SDS011;36852;45.466;11.066;2023-11-19T08:45:34;17.32;;;11.18;;
23346;SDS011;36852;45.466;11.066;2023-11-19T08:48:02;14.98;;;11.18;;
23346;SDS011;36852;45.466;11.066;2023-11-19T08:50:31;16.50;;;11.15;;
23346;SDS011;36852;45.466;11.066;2023-11-19T08:53:04;14.75;;;10.45;;
23346;SDS011;36852;45.466;11.066;2023-11-19T08:55:33;27.93;;;13.55;;
23346;SDS011;36852;45.466;11.066;2023-11-19T08:58:01;18.07;;;12.25;;
23346;SDS011;36852;45.466;11.066;2023-11-19T09:00:29;17.45;;;12.40;;
23346;SDS011;36852;45.466;11.066;2023-11-19T09:02:59;17.37;;;11.55;;
23346;SDS011;36852;45.466;11.066;2023-11-19T09:08:17;14.55;;;11.00;;
23346;SDS011;36852;45.466;11.066;2023-11-19T09:10:45;16.42;;;11.53;;
23346;SDS011;36852;45.466;11.066;2023-11-19T09:13:14;15.13;;;10.85;;
23346;SDS011;36852;45.466;11.066;2023-11-19T09:15:42;17.00;;;11.48;;
23346;SDS011;36852;45.466;11.066;2023-11-19T09:18:10;17.80;;;11.20;;
23346;SDS011;36852;45.466;11.066;2023-11-19T09:20:38;17.60;;;11.03;;
23346;SDS011;36852;45.466;11.066;2023-11-19T09:23:06;18.85;;;11.18;;
23346;SDS011;36852;45.466;11.066;2023-11-19T09:25:36;18.67;;;11.50;;
23346;SDS011;36852;45.466;11.066;2023-11-19T09:28:07;15.20;;;11.63;;
23346;SDS011;36852;45.466;11.066;2023-11-19T09:30:36;16.60;;;11.15;;
23346;SDS011;36852;45.466;11.066;2023-11-19T09:33:04;16.95;;;12.25;;
23346;SDS011;36852;45.466;11.066;2023-11-19T09:35:33;19.50;;;12.43;;
23346;SDS011;36852;45.466;11.066;2023-11-19T09:38:01;21.17;;;11.93;;
23346;SDS011;36852;45.466;11.066;2023-11-19T09:40:30;20.17;;;12.37;;
23346;SDS011;36852;45.466;11.066;2023-11-19T09:43:02;19.85;;;12.55;;
23346;SDS011;36852;45.466;11.066;2023-11-19T09:45:31;21.60;;;15.18;;
23346;SDS011;36852;45.466;11.066;2023-11-19T09:48:01;22.00;;;14.55;;
23346;SDS011;36852;45.466;11.066;2023-11-19T09:50:30;20.10;;;13.93;;
23346;SDS011;36852;45.466;11.066;2023-11-19T09:52:59;27.35;;;15.03;;
23346;SDS011;36852;45.466;11.066;2023-11-19T09:55:29;23.12;;;14.13;;
23346;SDS011;36852;45.466;11.066;2023-11-19T09:57:58;21.00;;;13.43;;
23346;SDS011;36852;45.466;11.066;2023-11-19T10:00:28;23.02;;;15.70;;
23346;SDS011;36852;45.466;11.066;2023-11-19T10:02:58;20.30;;;14.93;;
23346;SDS011;36852;45.466;11.066;2023-11-19T10:05:27;22.32;;;14.43;;
23346;SDS011;36852;45.466;11.066;2023-11-19T10:07:55;26.55;;;15.13;;
23346;SDS011;36852;45.466;11.066;2023-11-19T10:10:24;25.52;;;14.87;;
23346;SDS011;36852;45.466;11.066;2023-11-19T10:12:55;22.67;;;15.43;;
23346;SDS011;36852;45.466;11.066;2023-11-19T10:15:24;24.65;;;16.48;;
23346;SDS011;36852;45.466;11.066;2023-11-19T10:17:58;27.73;;;16.00;;
23346;SDS011;36852;45.466;11.066;2023-11-19T10:23:04;25.68;;;15.98;;
23346;SDS011;36852;45.466;11.066;2023-11-19T10:25:33;27.95;;;17.27;;
23346;SDS011;36852;45.466;11.066;2023-11-19T10:28:02;27.00;;;16.62;;
23346;SDS011;36852;45.466;11.066;2023-11-19T10:30:35;21.27;;;15.15;;
23346;SDS011;36852;45.466;11.066;2023-11-19T10:33:15;29.27;;;16.02;;
23346;SDS011;36852;45.466;11.066;2023-11-19T10:35:51;27.37;;;17.05;;
23346;SDS011;36852;45.466;11.066;2023-11-19T10:38:28;27.40;;;17.55;;
23346;SDS011;36852;45.466;11.066;2023-11-19T10:40:58;25.55;;;16.02;;
23346;SDS011;36852;45.466;11.066;2023-11-19T10:43:28;21.73;;;15.90;;
23346;SDS011;36852;45.466;11.066;2023-11-19T10:46:08;26.45;;;16.75;;
23346;SDS011;36852;45.466;11.066;2023-11-19T10:48:39;27.05;;;17.50;;
23346;SDS011;36852;45.466;11.066;2023-11-19T10:51:08;24.15;;;16.02;;
23346;SDS011;36852;45.466;11.066;2023-11-19T10:53:37;25.23;;;16.55;;
23346;SDS011;36852;45.466;11.066;2023-11-19T10:56:12;22.65;;;15.50;;
23346;SDS011;36852;45.466;11.066;2023-11-19T10:58:44;27.50;;;16.07;;
23346;SDS011;36852;45.466;11.066;2023-11-19T11:01:14;26.27;;;15.88;;
23346;SDS011;36852;45.466;11.066;2023-11-19T11:03:55;24.20;;;16.20;;
23346;SDS011;36852;45.466;11.066;2023-11-19T11:06:27;23.32;;;16.32;;
23346;SDS011;36852;45.466;11.066;2023-11-19T11:09:05;28.12;;;18.42;;
23346;SDS011;36852;45.466;11.066;2023-11-19T11:11:36;27.45;;;18.55;;
23346;SDS011;36852;45.466;11.066;2023-11-19T11:14:07;28.05;;;18.57;;
23346;SDS011;36852;45.466;11.066;2023-11-19T11:16:37;26.25;;;17.30;;
23346;SDS011;36852;45.466;11.066;2023-11-19T11:19:07;21.90;;;16.40;;
23346;SDS011;36852;45.466;11.066;2023-11-19T11:21:36;26.85;;;17.48;;
23346;SDS011;36852;45.466;11.066;2023-11-19T11:29:59;25.80;;;16.67;;
23346;SDS011;36852;45.466;11.066;2023-11-19T11:32:33;22.90;;;15.85;;
23346;SDS011;36852;45.466;11.066;2023-11-19T11:37:46;21.05;;;15.95;;
23346;SDS011;36852;45.466;11.066;2023-11-19T11:40:18;23.57;;;15.78;;
23346;SDS011;36852;45.466;11.066;2023-11-19T11:42:46;21.50;;;14.95;;
23346;SDS011;36852;45.466;11.066;2023-11-19T11:45:14;26.00;;;16.77;;
23346;SDS011;36852;45.466;11.066;2023-11-19T11:50:27;23.38;;;17.07;;
23346;SDS011;36852;45.466;11.066;2023-11-19T11:58:05;25.25;;;16.35;;
23346;SDS011;36852;45.466;11.066;2023-11-19T12:00:36;23.55;;;15.63;;
23346;SDS011;36852;45.466;11.066;2023-11-19T12:03:09;22.22;;;17.05;;
23346;SDS011;36852;45.466;11.066;2023-11-19T12:05:45;23.52;;;17.60;;
23346;SDS011;36852;45.466;11.066;2023-11-19T12:08:15;23.52;;;17.32;;
23346;SDS011;36852;45.466;11.066;2023-11-19T12:10:51;23.67;;;17.27;;
23346;SDS011;36852;45.466;11.066;2023-11-19T12:13:21;23.00;;;15.93;;
23346;SDS011;36852;45.466;11.066;2023-11-19T12:18:30;19.98;;;16.12;;
23346;SDS011;36852;45.466;11.066;2023-11-19T12:20:59;23.57;;;16.17;;
23346;SDS011;36852;45.466;11.066;2023-11-19T12:23:31;25.02;;;16.32;;
23346;SDS011;36852;45.466;11.066;2023-11-19T12:26:00;23.32;;;14.93;;
23346;SDS011;36852;45.466;11.066;2023-11-19T12:28:28;23.47;;;17.42;;
23346;SDS011;36852;45.466;11.066;2023-11-19T12:31:07;34.15;;;22.45;;
23346;SDS011;36852;45.466;11.066;2023-11-19T12:33:46;28.80;;;20.17;;
23346;SDS011;36852;45.466;11.066;2023-11-19T12:36:16;22.65;;;16.60;;
23346;SDS011;36852;45.466;11.066;2023-11-19T12:38:45;21.77;;;16.62;;
23346;SDS011;36852;45.466;11.066;2023-11-19T12:41:15;24.37;;;17.05;;
23346;SDS011;36852;45.466;11.066;2023-11-19T12:43:44;18.85;;;15.45;;
23346;SDS011;36852;45.466;11.066;2023-11-19T12:46:20;23.15;;;15.48;;
23346;SDS011;36852;45.466;11.066;2023-11-19T12:48:52;20.50;;;15.88;;
23346;SDS011;36852;45.466;11.066;2023-11-19T12:51:20;17.60;;;14.20;;
23346;SDS011;36852;45.466;11.066;2023-11-19T12:53:49;24.43;;;15.48;;
23346;SDS011;36852;45.466;11.066;2023-11-19T12:56:22;20.65;;;15.90;;
23346;SDS011;36852;45.466;11.066;2023-11-19T12:58:50;22.58;;;15.00;;
23346;SDS011;36852;45.466;11.066;2023-11-19T13:01:21;24.55;;;16.60;;
23346;SDS011;36852;45.466;11.066;2023-11-19T13:03:51;23.95;;;14.83;;
23346;SDS011;36852;45.466;11.066;2023-11-19T13:06:19;20.72;;;15.48;;
23346;SDS011;36852;45.466;11.066;2023-11-19T13:08:51;18.45;;;15.58;;
23346;SDS011;36852;45.466;11.066;2023-11-19T13:11:30;20.48;;;16.17;;
23346;SDS011;36852;45.466;11.066;2023-11-19T13:14:03;20.97;;;15.65;;
23346;SDS011;36852;45.466;11.066;2023-11-19T13:16:33;19.70;;;15.32;;
23346;SDS011;36852;45.466;11.066;2023-11-19T13:19:02;22.67;;;15.78;;
23346;SDS011;36852;45.466;11.066;2023-11-19T13:21:30;18.80;;;15.20;;
23346;SDS011;36852;45.466;11.066;2023-11-19T13:23:59;21.30;;;14.80;;
23346;SDS011;36852;45.466;11.066;2023-11-19T13:26:27;18.20;;;14.98;;
23346;SDS011;36852;45.466;11.066;2023-11-19T13:28:55;17.95;;;14.60;;
23346;SDS011;36852;45.466;11.066;2023-11-19T13:34:12;17.90;;;13.25;;
23346;SDS011;36852;45.466;11.066;2023-11-19T13:36:43;16.70;;;14.90;;
23346;SDS011;36852;45.466;11.066;2023-11-19T13:39:14;16.95;;;14.38;;
23346;SDS011;36852;45.466;11.066;2023-11-19T13:41:49;18.17;;;14.40;;
23346;SDS011;36852;45.466;11.066;2023-11-19T13:44:23;17.37;;;14.25;;
23346;SDS011;36852;45.466;11.066;2023-11-19T13:47:13;14.78;;;13.25;;
23346;SDS011;36852;45.466;11.066;2023-11-19T13:49:48;14.78;;;12.93;;
23346;SDS011;36852;45.466;11.066;2023-11-19T13:52:16;14.60;;;13.18;;
23346;SDS011;36852;45.466;11.066;2023-11-19T13:54:44;15.28;;;13.78;;
23346;SDS011;36852;45.466;11.066;2023-11-19T13:59:57;15.05;;;13.40;;
23346;SDS011;36852;45.466;11.066;2023-11-19T14:02:25;16.95;;;14.55;;
23346;SDS011;36852;45.466;11.066;2023-11-19T14:04:53;15.83;;;14.10;;
23346;SDS011;36852;45.466;11.066;2023-11-19T14:07:21;15.98;;;13.83;;
23346;SDS011;36852;45.466;11.066;2023-11-19T14:09:49;19.50;;;16.65;;
23346;SDS011;36852;45.466;11.066;2023-11-19T14:12:17;16.27;;;14.58;;
23346;SDS011;36852;45.466;11.066;2023-11-19T14:14:45;17.35;;;14.10;;
23346;SDS011;36852;45.466;11.066;2023-11-19T14:17:13;14.70;;;13.20;;
23346;SDS011;36852;45.466;11.066;2023-11-19T14:19:44;15.50;;;13.90;;
23346;SDS011;36852;45.466;11.066;2023-11-19T14:22:12;17.00;;;13.40;;
23346;SDS011;36852;45.466;11.066;2023-11-19T14:24:41;14.53;;;13.00;;
23346;SDS011;36852;45.466;11.066;2023-11-19T14:27:10;16.25;;;13.22;;
23346;SDS011;36852;45.466;11.066;2023-11-19T14:29:41;15.43;;;13.75;;
23346;SDS011;36852;45.466;11.066;2023-11-19T14:32:11;16.25;;;13.90;;
23346;SDS011;36852;45.466;11.066;2023-11-19T14:34:39;15.75;;;13.28;;
23346;SDS011;36852;45.466;11.066;2023-11-19T14:37:08;17.55;;;13.43;;
23346;SDS011;36852;45.466;11.066;2023-11-19T14:39:37;14.85;;;13.38;;
23346;SDS011;36852;45.466;11.066;2023-11-19T14:42:06;16.60;;;14.85;;
23346;SDS011;36852;45.466;11.066;2023-11-19T14:44:39;34.80;;;30.50;;
23346;SDS011;36852;45.466;11.066;2023-11-19T14:47:08;17.77;;;15.88;;
23346;SDS011;36852;45.466;11.066;2023-11-19T14:49:36;15.90;;;14.20;;
23346;SDS011;36852;45.466;11.066;2023-11-19T14:52:07;16.80;;;13.93;;
23346;SDS011;36852;45.466;11.066;2023-11-19T14:54:37;15.15;;;13.13;;
23346;SDS011;36852;45.466;11.066;2023-11-19T14:57:13;15.75;;;14.15;;
23346;SDS011;36852;45.466;11.066;2023-11-19T14:59:41;18.32;;;14.63;;
23346;SDS011;36852;45.466;11.066;2023-11-19T15:02:10;21.30;;;15.28;;